Terminal Aerodrome Forecast
Issued by NWS Newport/Morehead City, NC

Home | Current Version | Previous Version | Text Only | Print | Product List | Glossary Off
Versions: 1 2 3 4 5 6 7 8 9 10 11 12 13 14 15 16 17 18 19 20 21 22 23 24 25

372
FTUS42 KMHX 192323
TAFEWN
TAF
KEWN 192323Z 2000/2024 VRB04KT P6SM FEW050 BKN100
     FM200300 VRB03KT P6SM SKC
     FM200800 VRB02KT 2SM BR SCT005
     FM201200 VRB05KT P6SM SCT050=

USA.gov is the U.S. government's official web portal to all federal, state and local government web resources and services.